Nehalem, Oregon
Current Conditions -  °F | °C
As of 5:16 PM on Tuesday 27 Jan 2015 (Local Time) from KAST Reporting Station
Haze Haze  
Wind Chill: 45°   Ceiling: 1600
Heat Index: 49°   Visibility: 5mi
Dew Point: 47°   Wind: 9mph
Humidity: 93%   Direction: 320°NW
Pressure: 30.17"   Gusts: NA
Location:  45.72°N, 123.89°W
Report Text: KAST 280116Z AUTO 32008KT 5SM BR SCT006 OVC016 09/08 A3017 RMK AO2 CIG 007 RWY 08 T00940083
Loading
Personal Weather Stations






























Interactive Weather Map New forecast layout! Learn more

10-Day Weather Forecast

Advertisements
Track Severe Weather on mobile